Time;durP1;ratioP1;P1;durP2;ratioP2;P2;SDS_P1;SDS_P2;PMS_P1;PMS_P2;Temp;Humidity;BMP_temperature;BMP_pressure;BME280_temperature;BME280_humidity;BME280_pressure;Samples;Min_cycle;Max_cycle;Signal;HPM_P1;HPM_P2
2022/03/27 00:00:16;;;;;;;15.48;12.38;;;7.80;99.90;;;;;;5056999;28;20198;-56
2022/03/27 00:02:44;;;;;;;13.10;11.80;;;7.80;99.90;;;;;;5057150;28;20269;-56
2022/03/27 00:05:12;;;;;;;13.77;11.45;;;7.80;99.90;;;;;;5057646;28;20195;-55
2022/03/27 00:07:39;;;;;;;13.70;10.90;;;7.80;99.90;;;;;;5056035;28;20206;-57
2022/03/27 00:10:09;;;;;;;14.38;12.07;;;7.80;99.90;;;;;;5058529;28;20206;-56
2022/03/27 00:12:36;;;;;;;15.23;11.90;;;7.70;99.90;;;;;;5061780;28;20725;-56
2022/03/27 00:15:04;;;;;;;15.80;12.63;;;7.70;99.90;;;;;;5061799;28;20304;-56
2022/03/27 00:17:33;;;;;;;15.07;13.32;;;7.80;99.90;;;;;;5060293;28;20208;-56
2022/03/27 00:20:02;;;;;;;15.88;13.30;;;7.70;99.90;;;;;;5057649;28;20214;-57
2022/03/27 00:22:29;;;;;;;14.13;11.40;;;7.70;99.90;;;;;;5057936;28;20237;-57
2022/03/27 00:24:56;;;;;;;14.93;12.20;;;7.70;99.90;;;;;;5059471;28;20198;-56
2022/03/27 00:27:25;;;;;;;15.57;12.50;;;7.60;99.90;;;;;;5058195;28;20248;-56
2022/03/27 00:29:52;;;;;;;15.68;12.75;;;7.60;99.90;;;;;;5058137;28;20206;-56
2022/03/27 00:32:20;;;;;;;15.20;13.43;;;7.60;99.90;;;;;;5072061;28;20226;-56
2022/03/27 00:34:48;;;;;;;17.45;13.43;;;7.60;99.90;;;;;;5073573;28;20248;-57
2022/03/27 00:37:15;;;;;;;16.27;12.63;;;7.60;99.90;;;;;;5073306;28;20230;-56
2022/03/27 00:39:42;;;;;;;16.58;12.00;;;7.60;99.90;;;;;;5073876;28;20573;-57
2022/03/27 00:42:09;;;;;;;16.20;12.63;;;7.60;99.90;;;;;;5064833;28;20222;-56
2022/03/27 00:44:39;;;;;;;17.70;13.32;;;7.60;99.90;;;;;;5062380;28;20202;-56
2022/03/27 00:47:07;;;;;;;17.58;13.38;;;7.60;99.90;;;;;;5065586;28;20197;-56
2022/03/27 00:49:34;;;;;;;14.70;12.23;;;7.60;99.90;;;;;;5063637;28;20224;-56
2022/03/27 00:52:01;;;;;;;19.40;12.52;;;7.60;99.90;;;;;;5056950;28;20222;-57
2022/03/27 00:54:29;;;;;;;21.35;13.95;;;7.60;99.90;;;;;;5059838;28;20585;-56
2022/03/27 00:56:56;;;;;;;21.00;13.65;;;7.60;99.90;;;;;;5056711;28;20205;-56
2022/03/27 00:59:23;;;;;;;15.27;11.85;;;7.50;99.90;;;;;;5056299;28;20579;-56
2022/03/27 01:01:51;;;;;;;16.38;12.32;;;7.60;99.90;;;;;;5056395;28;20222;-57
2022/03/27 01:04:18;;;;;;;17.27;12.82;;;7.60;99.90;;;;;;5068366;28;20210;-56
2022/03/27 01:06:46;;;;;;;14.77;12.23;;;7.60;99.90;;;;;;5067914;28;20617;-56
2022/03/27 01:12:13;;;;;;;17.48;12.98;;;7.60;99.90;;;;;;5068913;28;20252;-55
2022/03/27 01:14:40;;;;;;;15.77;12.80;;;7.60;99.90;;;;;;5059006;28;20237;-56
2022/03/27 01:17:10;;;;;;;18.38;13.75;;;7.60;99.90;;;;;;5056462;28;20323;-55
2022/03/27 01:19:43;;;;;;;16.25;11.85;;;7.60;99.90;;;;;;5056192;28;20218;-56
2022/03/27 01:22:12;;;;;;;17.23;13.15;;;7.60;99.90;;;;;;5055897;28;20614;-58
2022/03/27 01:24:39;;;;;;;16.52;12.73;;;7.70;99.90;;;;;;5055774;28;20195;-57
2022/03/27 01:27:07;;;;;;;16.90;12.90;;;7.70;99.90;;;;;;5056148;28;20206;-57
2022/03/27 01:29:35;;;;;;;16.52;13.02;;;7.70;99.90;;;;;;5055665;28;20207;-56
2022/03/27 01:32:03;;;;;;;18.95;12.73;;;7.70;99.90;;;;;;5055871;28;20649;-56
2022/03/27 01:34:31;;;;;;;19.85;13.27;;;7.70;99.90;;;;;;5055855;28;20628;-57
2022/03/27 01:37:03;;;;;;;19.67;14.88;;;7.70;99.90;;;;;;5055049;28;20207;-57
2022/03/27 01:39:31;;;;;;;16.58;13.18;;;7.70;99.90;;;;;;5056205;28;20214;-57
2022/03/27 01:41:58;;;;;;;17.33;12.57;;;7.70;99.90;;;;;;5055518;28;20226;-57
2022/03/27 01:44:25;;;;;;;16.10;12.90;;;7.70;99.90;;;;;;5055474;28;20205;-56
2022/03/27 01:46:53;;;;;;;17.02;13.82;;;7.70;99.90;;;;;;5055778;28;20206;-56
2022/03/27 01:49:20;;;;;;;18.90;13.50;;;7.70;99.90;;;;;;5055374;28;20231;-57
2022/03/27 01:51:48;;;;;;;18.40;12.98;;;7.80;99.90;;;;;;5055143;28;20222;-56
2022/03/27 01:54:15;;;;;;;18.38;14.40;;;7.80;99.90;;;;;;5055154;28;20254;-57
2022/03/27 01:56:44;;;;;;;19.15;14.80;;;7.80;99.90;;;;;;5055663;28;20203;-57
2022/03/27 01:59:11;;;;;;;20.20;14.98;;;7.80;99.90;;;;;;5055198;28;20209;-57
2022/03/27 02:01:39;;;;;;;17.55;14.23;;;7.80;99.90;;;;;;5054961;28;20317;-57
2022/03/27 02:04:06;;;;;;;22.13;15.40;;;7.80;99.90;;;;;;5055363;28;20215;-57
2022/03/27 02:06:34;;;;;;;21.95;15.32;;;7.80;99.90;;;;;;5055074;28;20198;-57
2022/03/27 02:09:01;;;;;;;22.15;15.40;;;7.70;99.90;;;;;;5055318;28;20285;-55
2022/03/27 02:11:29;;;;;;;18.42;13.10;;;7.70;99.90;;;;;;5054856;28;20227;-56
2022/03/27 02:13:57;;;;;;;19.75;14.32;;;7.70;99.90;;;;;;5056542;28;20210;-54
2022/03/27 02:16:24;;;;;;;17.48;13.90;;;7.70;99.90;;;;;;5057897;28;20205;-57
2022/03/27 02:18:51;;;;;;;20.38;14.48;;;7.70;99.90;;;;;;5056997;28;20205;-58
2022/03/27 02:21:19;;;;;;;18.45;13.75;;;7.60;99.90;;;;;;5055960;28;20235;-57
2022/03/27 02:23:47;;;;;;;21.85;14.35;;;7.60;99.90;;;;;;5055406;28;20181;-57
2022/03/27 02:26:14;;;;;;;21.85;15.55;;;7.60;99.90;;;;;;5054994;28;20203;-57
2022/03/27 02:28:41;;;;;;;21.73;15.40;;;7.50;99.90;;;;;;5054863;28;20209;-56
2022/03/27 02:31:10;;;;;;;20.15;14.23;;;7.50;99.90;;;;;;5055389;28;20574;-57
2022/03/27 02:33:37;;;;;;;21.80;15.15;;;7.50;99.90;;;;;;5055259;28;20199;-56
2022/03/27 02:36:06;;;;;;;19.17;14.77;;;7.50;99.90;;;;;;5054449;28;20721;-56
2022/03/27 02:38:34;;;;;;;20.95;14.93;;;7.40;99.90;;;;;;5054584;28;20225;-57
2022/03/27 02:41:01;;;;;;;21.33;15.40;;;7.40;99.90;;;;;;5054596;28;20224;-57
2022/03/27 02:43:28;;;;;;;23.67;14.90;;;7.40;99.90;;;;;;5054648;28;20221;-57
2022/03/27 02:45:55;;;;;;;22.55;15.52;;;7.40;99.90;;;;;;5054261;28;20585;-57
2022/03/27 02:48:23;;;;;;;21.70;15.32;;;7.30;99.90;;;;;;5053115;28;20217;-57
2022/03/27 02:50:50;;;;;;;21.38;16.08;;;7.30;99.90;;;;;;5054406;28;20205;-57
2022/03/27 02:53:17;;;;;;;29.33;16.05;;;7.30;99.90;;;;;;5054115;28;20608;-57
2022/03/27 02:55:44;;;;;;;24.00;16.55;;;7.30;99.90;;;;;;5054207;28;20232;-57
2022/03/27 02:58:12;;;;;;;20.48;15.50;;;7.20;99.90;;;;;;5054122;28;20207;-56
2022/03/27 03:00:41;;;;;;;22.08;16.67;;;7.30;99.90;;;;;;5054216;28;20202;-56
2022/03/27 03:03:08;;;;;;;21.67;15.80;;;7.30;99.90;;;;;;5054092;28;20321;-57
2022/03/27 03:05:38;;;;;;;28.05;17.88;;;7.30;99.90;;;;;;5053875;28;20195;-56
2022/03/27 03:08:10;;;;;;;26.45;18.73;;;7.30;99.90;;;;;;5054045;28;20202;-57
2022/03/27 03:10:38;;;;;;;27.02;17.80;;;7.30;99.90;;;;;;5054165;28;20197;-57
2022/03/27 03:13:05;;;;;;;26.02;17.10;;;7.20;99.90;;;;;;5053636;28;20226;-56
2022/03/27 03:15:32;;;;;;;27.63;19.15;;;7.20;99.90;;;;;;5054177;28;20218;-57
2022/03/27 03:18:00;;;;;;;26.05;17.15;;;7.20;99.90;;;;;;5055454;28;20202;-57
2022/03/27 03:20:27;;;;;;;28.05;18.77;;;7.20;99.90;;;;;;5058781;28;20288;-56
2022/03/27 03:22:56;;;;;;;29.08;18.00;;;7.10;99.90;;;;;;5066179;28;20229;-56
2022/03/27 03:25:24;;;;;;;33.35;19.48;;;7.10;99.90;;;;;;5060472;28;20195;-56
2022/03/27 03:27:51;;;;;;;32.03;19.77;;;7.10;99.90;;;;;;5057350;28;20230;-56
2022/03/27 03:30:18;;;;;;;30.48;19.77;;;7.10;99.90;;;;;;5055240;28;20207;-56
2022/03/27 03:32:46;;;;;;;31.33;19.98;;;7.00;99.90;;;;;;5053374;28;20730;-56
2022/03/27 03:35:13;;;;;;;30.58;20.50;;;7.00;99.90;;;;;;5053642;28;20233;-56
2022/03/27 03:37:40;;;;;;;27.05;18.98;;;7.00;99.90;;;;;;5055461;28;20209;-56
2022/03/27 03:40:10;;;;;;;33.78;19.27;;;6.90;99.90;;;;;;5054475;28;20205;-56
2022/03/27 03:42:37;;;;;;;29.90;19.95;;;6.90;99.90;;;;;;5054347;28;20225;-56
2022/03/27 03:45:05;;;;;;;31.42;19.60;;;6.90;99.90;;;;;;5053340;28;20204;-56
2022/03/27 03:47:32;;;;;;;34.55;19.45;;;6.80;99.90;;;;;;5053030;28;20210;-56
2022/03/27 03:49:59;;;;;;;32.20;19.30;;;6.90;99.90;;;;;;5053170;28;20654;-57
2022/03/27 03:52:26;;;;;;;33.25;20.30;;;6.90;99.90;;;;;;5052947;28;20222;-57
2022/03/27 03:54:53;;;;;;;35.10;20.58;;;6.90;99.90;;;;;;5053189;28;20246;-57
2022/03/27 03:57:22;;;;;;;37.00;21.83;;;6.90;99.90;;;;;;5053175;28;20210;-57
2022/03/27 03:59:49;;;;;;;37.20;21.20;;;6.90;99.90;;;;;;5052518;28;20677;-57
2022/03/27 04:02:18;;;;;;;40.72;21.38;;;6.90;99.90;;;;;;5052734;28;20222;-56
2022/03/27 04:04:46;;;;;;;34.92;21.23;;;6.90;99.90;;;;;;5052964;28;20203;-56
2022/03/27 04:09:33;;;;;;;35.28;20.95;;;6.80;99.90;;;;;;5091242;27;20542;-55
2022/03/27 04:12:01;;;;;;;40.22;22.23;;;6.80;99.90;;;;;;5090705;28;20224;-57
2022/03/27 04:14:29;;;;;;;38.28;21.67;;;6.80;99.90;;;;;;5090497;28;20200;-57
2022/03/27 04:16:57;;;;;;;39.25;21.90;;;6.80;99.90;;;;;;5090291;28;20631;-57
2022/03/27 04:19:24;;;;;;;37.08;21.65;;;6.80;99.90;;;;;;5090243;28;20239;-57
2022/03/27 04:21:51;;;;;;;44.95;23.88;;;6.80;99.90;;;;;;5090585;28;20227;-58
2022/03/27 04:24:18;;;;;;;33.08;19.85;;;6.70;99.90;;;;;;5091864;28;20263;-60
2022/03/27 04:26:46;;;;;;;39.45;20.95;;;6.70;99.90;;;;;;5090095;28;20200;-60
2022/03/27 04:29:14;;;;;;;37.45;20.52;;;6.70;99.90;;;;;;5090410;28;20216;-59
2022/03/27 04:31:41;;;;;;;38.03;19.50;;;6.70;99.90;;;;;;5090147;28;20220;-60
2022/03/27 04:34:09;;;;;;;34.30;19.60;;;6.70;99.90;;;;;;5090393;28;20200;-59
2022/03/27 04:36:37;;;;;;;35.60;21.40;;;6.70;99.90;;;;;;5090334;28;20694;-60
2022/03/27 04:39:05;;;;;;;32.88;19.13;;;6.70;99.90;;;;;;5089901;28;20677;-60
2022/03/27 04:41:33;;;;;;;32.47;20.23;;;6.70;99.90;;;;;;5090857;28;20256;-59
2022/03/27 04:44:02;;;;;;;33.65;18.58;;;6.70;99.90;;;;;;5090198;28;20197;-60
2022/03/27 04:46:29;;;;;;;30.98;18.85;;;6.70;99.90;;;;;;5090189;28;20204;-58
2022/03/27 04:48:56;;;;;;;27.35;16.70;;;6.70;99.90;;;;;;5090036;28;20220;-60
2022/03/27 04:51:23;;;;;;;31.17;17.48;;;6.70;99.90;;;;;;5089694;28;20614;-59
2022/03/27 04:53:51;;;;;;;33.40;18.23;;;6.70;99.90;;;;;;5089910;28;20208;-61
2022/03/27 04:56:18;;;;;;;29.13;17.83;;;6.70;99.90;;;;;;5089612;28;20660;-60
2022/03/27 04:58:45;;;;;;;30.10;18.63;;;6.70;99.90;;;;;;5089594;28;20246;-60
2022/03/27 05:01:14;;;;;;;32.97;18.23;;;6.80;99.90;;;;;;5089405;28;20208;-60
2022/03/27 05:03:41;;;;;;;34.42;20.35;;;6.80;99.90;;;;;;5089858;28;20208;-60
2022/03/27 05:06:08;;;;;;;30.90;18.95;;;6.80;99.90;;;;;;5089854;28;20209;-60
2022/03/27 05:08:36;;;;;;;36.75;20.17;;;6.80;99.90;;;;;;5089334;28;20218;-60
2022/03/27 05:11:03;;;;;;;40.45;19.25;;;6.90;99.90;;;;;;5089653;28;20209;-60
2022/03/27 05:13:30;;;;;;;29.08;18.23;;;6.90;99.90;;;;;;5089364;28;20207;-59
2022/03/27 05:15:57;;;;;;;37.60;19.30;;;6.90;99.90;;;;;;5089675;28;20204;-58
2022/03/27 05:18:25;;;;;;;35.67;19.30;;;7.00;99.90;;;;;;5089579;28;20201;-59
2022/03/27 05:20:52;;;;;;;36.30;19.67;;;7.00;99.90;;;;;;5075539;28;20221;-60
2022/03/27 05:23:19;;;;;;;31.80;18.83;;;7.00;99.90;;;;;;5076036;28;20200;-60
2022/03/27 05:25:49;;;;;;;34.95;20.00;;;7.10;99.90;;;;;;5075987;28;20210;-60
2022/03/27 05:28:16;;;;;;;40.75;19.77;;;7.10;99.90;;;;;;5075973;28;20218;-59
2022/03/27 05:30:43;;;;;;;31.63;18.98;;;7.10;99.90;;;;;;5075904;28;20673;-60
2022/03/27 05:33:10;;;;;;;37.35;18.70;;;7.20;99.90;;;;;;5075609;28;20740;-60
2022/03/27 05:35:40;;;;;;;33.22;19.65;;;7.20;99.90;;;;;;5075650;28;20212;-60
2022/03/27 05:38:07;;;;;;;32.97;18.45;;;7.20;99.90;;;;;;5075706;28;20248;-60
2022/03/27 05:40:34;;;;;;;35.30;18.33;;;7.30;99.90;;;;;;5076342;28;20204;-60
2022/03/27 05:43:01;;;;;;;32.30;18.95;;;7.30;99.90;;;;;;5076498;28;20236;-60
2022/03/27 05:45:28;;;;;;;30.48;19.25;;;7.30;99.90;;;;;;5076406;28;20205;-60
2022/03/27 05:47:56;;;;;;;32.90;20.88;;;7.30;99.90;;;;;;5075509;28;20225;-60
2022/03/27 05:50:23;;;;;;;35.63;20.17;;;7.40;99.90;;;;;;5075508;28;20205;-58
2022/03/27 05:52:53;;;;;;;36.80;19.45;;;7.40;99.90;;;;;;5075501;28;20221;-59
2022/03/27 05:55:20;;;;;;;39.65;21.25;;;7.40;99.90;;;;;;5075444;28;20201;-60
2022/03/27 05:57:48;;;;;;;35.88;20.30;;;7.40;99.90;;;;;;5079557;28;20229;-59
2022/03/27 06:00:20;;;;;;;34.28;20.33;;;7.40;99.90;;;;;;5083028;28;20212;-60
2022/03/27 06:02:48;;;;;;;35.08;20.50;;;7.30;99.90;;;;;;5084134;28;20217;-59
2022/03/27 06:05:17;;;;;;;41.95;21.42;;;7.40;99.90;;;;;;5076926;28;20210;-59
2022/03/27 06:07:49;;;;;;;42.17;21.52;;;7.40;99.90;;;;;;5079270;28;20219;-60
2022/03/27 06:10:20;;;;;;;38.97;20.90;;;7.40;99.90;;;;;;5085600;28;20221;-59
2022/03/27 06:12:47;;;;;;;38.83;21.85;;;7.40;99.90;;;;;;5083745;28;20221;-60
2022/03/27 06:15:15;;;;;;;33.17;18.05;;;7.30;99.90;;;;;;5076188;28;20197;-59
2022/03/27 06:17:44;;;;;;;33.50;19.23;;;7.40;99.90;;;;;;5076124;28;20237;-60
2022/03/27 06:20:13;;;;;;;35.60;17.73;;;7.40;99.90;;;;;;5075388;28;20205;-61
2022/03/27 06:22:41;;;;;;;36.38;18.00;;;7.40;99.90;;;;;;5075627;28;20279;-57
2022/03/27 06:25:09;;;;;;;33.20;18.17;;;7.50;99.90;;;;;;5075397;28;20252;-59
2022/03/27 06:27:38;;;;;;;33.45;19.27;;;7.50;99.90;;;;;;5075408;28;20197;-60
2022/03/27 06:30:06;;;;;;;27.00;15.35;;;7.60;99.90;;;;;;5075627;28;20226;-61
2022/03/27 06:32:34;;;;;;;20.77;14.20;;;7.60;99.90;;;;;;5074738;28;20234;-60
2022/03/27 06:35:01;;;;;;;22.60;14.18;;;7.70;99.90;;;;;;5076009;28;20225;-60
2022/03/27 06:37:29;;;;;;;25.35;14.73;;;7.70;99.90;;;;;;5075722;28;20569;-59
2022/03/27 06:39:56;;;;;;;32.70;17.55;;;7.80;99.90;;;;;;5075358;28;20239;-60
2022/03/27 06:42:23;;;;;;;31.90;18.67;;;7.80;99.90;;;;;;5075495;28;20232;-60
2022/03/27 06:44:54;;;;;;;27.33;16.67;;;7.80;99.90;;;;;;5075086;28;20206;-60
2022/03/27 06:47:21;;;;;;;35.95;20.08;;;7.80;99.90;;;;;;5074562;28;20191;-59
2022/03/27 06:49:49;;;;;;;28.73;17.77;;;7.80;99.90;;;;;;5074439;28;20243;-60
2022/03/27 06:52:18;;;;;;;34.85;19.92;;;7.80;99.90;;;;;;5074053;28;20580;-59
2022/03/27 06:54:47;;;;;;;29.58;19.40;;;7.80;99.90;;;;;;5079086;28;20285;-59
2022/03/27 06:57:15;;;;;;;34.25;20.25;;;7.80;99.90;;;;;;5082189;28;20218;-61
2022/03/27 07:05:14;;;;;;;31.95;19.67;;;7.70;99.90;;;;;;5082497;28;20259;-59
2022/03/27 07:07:42;;;;;;;29.08;18.63;;;7.70;99.90;;;;;;5082136;28;20209;-59
2022/03/27 07:10:10;;;;;;;31.00;19.20;;;7.60;99.90;;;;;;5085743;28;20202;-60
2022/03/27 07:12:37;;;;;;;29.20;16.85;;;7.60;99.90;;;;;;5085308;28;20233;-60
2022/03/27 07:15:05;;;;;;;27.08;17.38;;;7.60;99.90;;;;;;5073435;28;20214;-60
2022/03/27 07:17:33;;;;;;;27.55;18.75;;;7.70;99.90;;;;;;5073590;28;20230;-60
2022/03/27 07:20:00;;;;;;;27.95;18.02;;;7.70;99.90;;;;;;5073845;28;20202;-60
2022/03/27 07:22:27;;;;;;;26.08;16.55;;;7.80;99.90;;;;;;5073642;28;20222;-60
2022/03/27 07:24:55;;;;;;;24.45;15.48;;;7.80;99.90;;;;;;5073626;28;20210;-60
2022/03/27 07:27:22;;;;;;;23.80;15.95;;;7.90;99.90;;;;;;5074416;28;20210;-61
2022/03/27 07:29:49;;;;;;;24.80;15.38;;;8.00;99.90;;;;;;5073749;28;20592;-60
2022/03/27 07:32:16;;;;;;;26.88;17.30;;;8.00;99.90;;;;;;5074072;28;20245;-59
2022/03/27 07:34:45;;;;;;;24.50;16.30;;;8.10;99.90;;;;;;5073970;28;20671;-60
2022/03/27 07:37:13;;;;;;;25.58;17.95;;;8.10;99.90;;;;;;5073721;28;20574;-59
2022/03/27 07:39:40;;;;;;;25.17;15.90;;;8.20;99.90;;;;;;5074331;28;20205;-58
2022/03/27 07:42:08;;;;;;;24.77;15.68;;;8.20;99.90;;;;;;5073196;28;20222;-58
2022/03/27 07:44:35;;;;;;;25.33;16.13;;;8.20;99.90;;;;;;5073481;28;20210;-57
2022/03/27 07:47:02;;;;;;;22.52;15.90;;;8.20;99.90;;;;;;5073685;28;20202;-60
2022/03/27 07:49:29;;;;;;;18.90;13.73;;;8.10;99.90;;;;;;5073607;28;20242;-57
2022/03/27 07:52:00;;;;;;;22.05;13.82;;;8.10;99.90;;;;;;5073615;28;20230;-59
2022/03/27 07:54:27;;;;;;;21.92;15.32;;;8.10;99.90;;;;;;5073819;28;20224;-60
2022/03/27 07:56:55;;;;;;;22.05;14.95;;;8.20;99.90;;;;;;5073154;28;20206;-58
2022/03/27 07:59:23;;;;;;;20.40;13.05;;;8.20;99.90;;;;;;5073448;28;20194;-60
2022/03/27 08:01:51;;;;;;;22.77;16.02;;;8.30;99.90;;;;;;5073489;28;20317;-59
2022/03/27 08:04:18;;;;;;;20.80;13.90;;;8.30;99.90;;;;;;5073232;28;20256;-58
2022/03/27 08:06:47;;;;;;;27.27;16.38;;;8.40;99.90;;;;;;5073196;28;20210;-60
2022/03/27 08:09:15;;;;;;;24.63;14.65;;;8.30;99.90;;;;;;5073231;28;20226;-59
2022/03/27 08:11:42;;;;;;;25.23;16.35;;;8.30;99.90;;;;;;5073355;28;20226;-60
2022/03/27 08:14:10;;;;;;;26.02;16.30;;;8.30;99.90;;;;;;5074912;28;20203;-59
2022/03/27 08:16:38;;;;;;;23.60;14.70;;;8.40;99.90;;;;;;5074305;28;20202;-59
2022/03/27 08:19:05;;;;;;;25.17;14.50;;;8.50;99.90;;;;;;5073532;28;20580;-61
2022/03/27 08:21:33;;;;;;;22.58;15.68;;;8.60;99.90;;;;;;5075306;28;20305;-59
2022/03/27 08:24:00;;;;;;;22.47;15.83;;;8.70;99.90;;;;;;5093918;28;20271;-59
2022/03/27 08:29:13;;;;;;;22.45;14.93;;;8.80;99.90;;;;;;5084267;28;20218;-60
2022/03/27 08:31:40;;;;;;;25.42;14.30;;;8.90;99.90;;;;;;5078850;28;20222;-59
2022/03/27 08:34:07;;;;;;;21.60;14.57;;;8.90;99.90;;;;;;5081083;28;20235;-59
2022/03/27 08:36:35;;;;;;;21.20;14.30;;;9.00;99.90;;;;;;5078538;28;20453;-60
2022/03/27 08:39:02;;;;;;;23.33;15.43;;;9.00;99.90;;;;;;5073261;28;20442;-60
2022/03/27 08:41:32;;;;;;;22.92;15.13;;;9.10;99.90;;;;;;5073153;28;20476;-60
2022/03/27 08:44:00;;;;;;;18.93;13.47;;;9.20;99.90;;;;;;5073751;28;20202;-60
2022/03/27 08:46:27;;;;;;;21.27;15.57;;;9.40;99.90;;;;;;5074510;28;20450;-60
2022/03/27 08:48:59;;;;;;;22.70;15.27;;;9.50;99.90;;;;;;5073481;28;20503;-60
2022/03/27 08:51:35;;;;;;;22.67;14.80;;;9.60;99.90;;;;;;5073418;28;20548;-60
2022/03/27 08:54:05;;;;;;;20.97;15.03;;;9.60;99.90;;;;;;5073548;28;20434;-60
2022/03/27 08:56:35;;;;;;;19.10;13.10;;;9.60;99.90;;;;;;5077789;28;20445;-59
2022/03/27 08:59:07;;;;;;;21.37;13.43;;;9.60;99.90;;;;;;5076949;28;20450;-59
2022/03/27 09:01:34;;;;;;;22.27;15.53;;;9.60;99.90;;;;;;5076799;28;20462;-60
2022/03/27 09:04:02;;;;;;;21.20;13.33;;;9.60;99.90;;;;;;5076705;28;20453;-60
2022/03/27 09:06:29;;;;;;;21.10;14.90;;;9.60;99.90;;;;;;5076952;28;20460;-61
2022/03/27 09:08:56;;;;;;;20.30;14.83;;;9.70;99.90;;;;;;5076670;28;20493;-59
2022/03/27 09:11:24;;;;;;;20.00;14.23;;;9.80;99.90;;;;;;5076450;28;20997;-59
2022/03/27 09:13:54;;;;;;;19.77;13.07;;;9.90;99.90;;;;;;5076497;28;20830;-60
2022/03/27 09:16:22;;;;;;;17.97;12.97;;;10.00;99.90;;;;;;5076435;28;20448;-59
2022/03/27 09:18:52;;;;;;;19.27;13.50;;;10.20;99.90;;;;;;5076709;28;20442;-61
2022/03/27 09:21:20;;;;;;;18.20;13.00;;;10.20;99.90;;;;;;5076511;28;20827;-60
2022/03/27 09:23:53;;;;;;;15.50;11.57;;;10.40;99.90;;;;;;5076385;28;20495;-60
2022/03/27 09:26:21;;;;;;;14.93;11.17;;;10.50;99.90;;;;;;5076299;28;20602;-60
2022/03/27 09:28:52;;;;;;;17.30;11.70;;;10.50;99.30;;;;;;5076197;28;20455;-61
2022/03/27 09:31:27;;;;;;;16.23;11.47;;;10.60;99.00;;;;;;5076599;28;20494;-61
2022/03/27 09:33:56;;;;;;;16.87;12.33;;;10.60;98.10;;;;;;5076253;28;20429;-60
2022/03/27 09:36:26;;;;;;;14.90;11.50;;;10.70;98.00;;;;;;5075777;28;20520;-60
2022/03/27 09:39:06;;;;;;;14.70;11.10;;;10.90;97.80;;;;;;5076135;28;20446;-60
2022/03/27 09:41:38;;;;;;;18.03;12.00;;;11.10;96.90;;;;;;5077828;28;20463;-58
2022/03/27 09:44:08;;;;;;;14.27;12.10;;;11.20;95.70;;;;;;5075785;28;20916;-60
2022/03/27 09:46:59;;;;;;;15.27;11.23;;;11.30;95.60;;;;;;5075931;28;20937;-57
2022/03/27 09:49:40;;;;;;;16.87;12.87;;;11.50;94.80;;;;;;5075541;28;20955;-60
2022/03/27 09:52:10;;;;;;;13.40;10.37;;;11.60;94.10;;;;;;5075869;28;20486;-61
2022/03/27 09:54:52;;;;;;;17.00;10.73;;;11.70;93.80;;;;;;5076652;28;20792;-59
2022/03/27 09:57:22;;;;;;;16.33;12.07;;;11.90;93.10;;;;;;5075952;28;20447;-61
2022/03/27 09:59:49;;;;;;;11.47;9.13;;;12.20;92.50;;;;;;5075721;28;20449;-61
2022/03/27 10:02:23;;;;;;;14.07;10.43;;;12.30;91.40;;;;;;5075815;28;20469;-59
2022/03/27 10:04:59;;;;;;;14.63;10.60;;;12.50;90.90;;;;;;5075153;28;20449;-61
2022/03/27 10:07:27;;;;;;;15.40;10.60;;;12.60;90.20;;;;;;5075365;28;20490;-61
2022/03/27 10:09:54;;;;;;;12.50;10.30;;;12.60;89.00;;;;;;5083680;28;20964;-58
2022/03/27 10:12:26;;;;;;;12.20;9.70;;;12.60;89.10;;;;;;5088452;28;20462;-60
2022/03/27 10:14:59;;;;;;;11.37;9.80;;;12.80;88.70;;;;;;5086278;28;20424;-60
2022/03/27 10:17:29;;;;;;;12.90;11.30;;;12.80;85.00;;;;;;5083418;28;20425;-59
2022/03/27 10:20:02;;;;;;;15.33;11.17;;;12.90;85.70;;;;;;5082221;28;20433;-60
2022/03/27 10:22:30;;;;;;;13.40;10.67;;;13.00;84.10;;;;;;5081932;28;20898;-60
2022/03/27 10:25:02;;;;;;;12.87;10.30;;;13.10;83.30;;;;;;5081482;28;20455;-57
2022/03/27 10:27:31;;;;;;;13.43;10.40;;;13.10;81.70;;;;;;5079753;28;20451;-58
2022/03/27 10:29:59;;;;;;;13.50;10.80;;;13.00;81.30;;;;;;5078902;28;20528;-56
2022/03/27 10:32:28;;;;;;;13.57;10.83;;;12.90;81.10;;;;;;5079447;28;20534;-57
2022/03/27 10:35:04;;;;;;;16.07;11.43;;;12.70;81.90;;;;;;5082485;28;20444;-58
2022/03/27 10:37:36;;;;;;;15.07;11.00;;;12.50;82.40;;;;;;5082086;28;20440;-57
2022/03/27 10:40:10;;;;;;;15.73;11.70;;;12.10;83.70;;;;;;5077259;28;20434;-57
2022/03/27 10:42:47;;;;;;;18.00;13.00;;;11.90;85.40;;;;;;5076019;28;20472;-58
2022/03/27 10:45:17;;;;;;;17.60;12.93;;;11.70;85.90;;;;;;5075724;28;20428;-58
2022/03/27 10:48:10;;;;;;;14.93;12.20;;;11.50;88.00;;;;;;5074641;28;20913;-58
2022/03/27 10:50:47;;;;;;;16.57;12.53;;;11.50;89.00;;;;;;5074616;28;20561;-58
2022/03/27 10:53:14;;;;;;;14.93;11.47;;;11.60;89.20;;;;;;5074265;28;20831;-57
2022/03/27 10:55:44;;;;;;;15.37;12.00;;;11.70;89.20;;;;;;5074388;28;20456;-58
2022/03/27 10:58:32;;;;;;;14.57;11.20;;;11.90;88.30;;;;;;5074251;28;20439;-57
2022/03/27 11:01:00;;;;;;;13.40;11.20;;;12.10;86.50;;;;;;5087002;28;20425;-58
2022/03/27 11:03:47;;;;;;;19.03;11.40;;;12.20;85.90;;;;;;5083949;28;20451;-58
2022/03/27 11:06:25;;;;;;;14.53;11.70;;;12.50;84.80;;;;;;5075695;28;20457;-58
2022/03/27 11:08:54;;;;;;;13.57;11.33;;;12.60;83.00;;;;;;5074028;28;20471;-58
2022/03/27 11:11:53;;;;;;;16.43;12.00;;;12.60;81.90;;;;;;5073846;28;20485;-57
2022/03/27 11:14:45;;;;;;;15.27;11.83;;;12.60;82.30;;;;;;5074549;28;20441;-56
2022/03/27 11:17:14;;;;;;;16.27;11.90;;;12.70;81.70;;;;;;5074930;28;20880;-58
2022/03/27 11:19:45;;;;;;;16.37;11.80;;;12.60;81.60;;;;;;5075859;28;20937;-59
2022/03/27 11:22:44;;;;;;;15.87;11.70;;;12.50;81.70;;;;;;5075313;28;20988;-59
2022/03/27 11:25:47;;;;;;;17.17;11.97;;;12.40;81.90;;;;;;5075875;28;20476;-58
2022/03/27 11:28:16;;;;;;;14.27;11.23;;;12.30;81.80;;;;;;5074998;28;20434;-59
2022/03/27 11:31:18;;;;;;;14.67;12.30;;;12.40;82.10;;;;;;5074181;28;20483;-58
2022/03/27 11:34:18;;;;;;;14.30;10.40;;;12.40;81.40;;;;;;5075001;28;20483;-57
2022/03/27 11:36:49;;;;;;;13.07;10.80;;;12.50;81.30;;;;;;5074484;28;20428;-59
2022/03/27 11:39:33;;;;;;;13.10;10.33;;;12.60;79.90;;;;;;5075434;28;20429;-60
2022/03/27 11:42:32;;;;;;;15.50;11.60;;;12.60;79.20;;;;;;5074564;28;20444;-59
2022/03/27 11:45:20;;;;;;;14.80;11.07;;;12.70;78.20;;;;;;5068535;28;20825;-57
2022/03/27 11:47:49;;;;;;;14.20;9.43;;;12.70;78.00;;;;;;5073840;28;20457;-58
2022/03/27 11:50:24;;;;;;;14.73;10.50;;;12.80;77.70;;;;;;5073300;28;20479;-58
2022/03/27 11:52:53;;;;;;;12.30;10.30;;;13.00;76.60;;;;;;5073224;28;20468;-59
2022/03/27 11:55:20;;;;;;;12.40;9.70;;;13.20;75.10;;;;;;5072912;28;20444;-58
2022/03/27 11:57:51;;;;;;;13.10;10.03;;;13.30;73.80;;;;;;5074020;28;20456;-59
2022/03/27 12:00:30;;;;;;;13.00;10.03;;;13.30;73.00;;;;;;5074030;28;20435;-59
2022/03/27 12:02:57;;;;;;;11.50;9.13;;;13.20;71.90;;;;;;5073258;28;20486;-56
2022/03/27 12:05:33;;;;;;;11.53;9.70;;;13.10;71.60;;;;;;5073228;28;20530;-57
2022/03/27 12:08:02;;;;;;;15.23;10.60;;;13.20;71.50;;;;;;5073307;28;20541;-58
2022/03/27 12:10:39;;;;;;;14.93;10.63;;;13.40;70.60;;;;;;5073056;28;21064;-58
2022/03/27 12:13:08;;;;;;;13.10;9.50;;;13.60;69.50;;;;;;5073449;28;20508;-57
2022/03/27 12:15:41;;;;;;;14.70;12.07;;;13.60;68.10;;;;;;5073438;28;20450;-57
2022/03/27 12:18:08;;;;;;;14.10;10.73;;;13.60;67.70;;;;;;5073604;28;20449;-59
2022/03/27 12:20:43;;;;;;;13.10;10.03;;;13.70;67.70;;;;;;5073534;28;20442;-57
2022/03/27 12:23:23;;;;;;;14.17;11.20;;;13.80;67.00;;;;;;5073292;28;20473;-59
2022/03/27 12:26:01;;;;;;;13.83;11.37;;;13.70;66.70;;;;;;5073102;28;20437;-58
2022/03/27 12:31:24;;;;;;;14.10;10.80;;;13.70;67.10;;;;;;5076802;28;20471;-57
2022/03/27 12:33:52;;;;;;;12.47;9.10;;;13.80;66.80;;;;;;5077253;28;20790;-58
2022/03/27 12:36:19;;;;;;;13.70;10.10;;;13.80;65.70;;;;;;5077374;28;20460;-57
2022/03/27 12:38:48;;;;;;;11.90;10.03;;;13.80;65.70;;;;;;5077306;28;20450;-56
2022/03/27 12:41:15;;;;;;;13.70;10.67;;;13.80;65.10;;;;;;5076726;28;21004;-57
2022/03/27 12:43:57;;;;;;;13.00;8.70;;;13.90;64.50;;;;;;5077195;28;20452;-56
2022/03/27 12:46:25;;;;;;;10.53;8.30;;;14.00;63.60;;;;;;5077127;28;20825;-58
2022/03/27 12:48:59;;;;;;;12.23;9.83;;;14.00;61.90;;;;;;5076757;28;20458;-57
2022/03/27 12:51:26;;;;;;;13.33;9.93;;;14.00;61.30;;;;;;5076638;28;20485;-57
2022/03/27 12:54:08;;;;;;;13.00;10.20;;;14.00;60.80;;;;;;5076542;28;20496;-57
2022/03/27 12:56:51;;;;;;;10.47;8.80;;;14.00;60.90;;;;;;5077415;28;20475;-57
2022/03/27 12:59:18;;;;;;;13.00;9.57;;;14.10;60.80;;;;;;5076251;28;20453;-57
2022/03/27 13:01:46;;;;;;;11.90;10.10;;;14.20;60.40;;;;;;5076486;28;20520;-57
2022/03/27 13:04:13;;;;;;;13.00;9.90;;;14.20;60.10;;;;;;5076397;28;20534;-58